-1 Query Result

LUMCON's Bayouside Classroom: Query Results


Try Another Query    Instructions for saving Query Results    View Delimited Text File for this Query   
UserNameUserIDGroupNumberLocationLocationIDSampleDateSampleTimeBottomTempTopTempBottomSalinityTopSalinityBottomDOTopDOBottompHToppHBottomTurbidityTopTurbidityDepth
lauram 18 LCaillouES 14 1/2/2003 12:30 NA 16 NA NA 5.8 na na NA NA 10 
lauram 18 LCaillouES 14 1/3/2003 10:50 NA 14 NA 3.0 NA 6.4 na na NA NA 10 
lauram 18 LCaillouES 14 3/3/2003 11:20 NA 14.5 NA 2.0 NA 5.2 na na NA NA 10 
simonnel 27 LCaillouES 14 1/7/2004 13:34 NA 13 NA NA     NA 
simonnel 27 05 LCaillouES 14 1/7/2004 13:05 na 13 na na     NA 
simonnel 27 LCaillouES 14 1/7/2004 13:35 NA 15 NA NA 7.3     NA 
LoriP 55 LCaillouES 14 1/7/2004 13:35 NA 12 NA NA 09 99 45 46 35 NA 
simonnel 27 LCaillouES 14 1/8/2004 13:41 NA 14 NA NA na na NA NA NA 
simonnel 27 LCaillouES 14 1/8/2004 13:35 NA 11 NA NA na na NA NA NA 
simonnel 27 LCaillouES 14 2/26/2004 10:20 NA 15 NA NA 4.2 NA NA   NA 
simonnel 27 LCaillouES 14 2/26/2004 10:45 NA 15 NA NA 5.1 NA NA   NA 
simonnel 27 LCaillouES 14 2/26/2004 10:40 NA 15 NA NA 7.8 NA NA   NA 
simonnel 27 LCaillouES 14 2/26/2004 10:00 NA 15 NA NA 5.4 NA NA   NA 
simonnel 27 LCaillouES 14 3/17/2004 13:15 21 NA NA 6.7 NA NA NA NA NA NA 
simonnel 27 LCaillouES 14 3/17/2004 13:50 22 NA NA 6.9 NA NA NA NA NA NA 
simonnel 27 LCaillouES 14 5/18/2004 2:45 30 NA NA 5.0 NA NA NA NA NA NA 
simonnel 27 LCaillouES 14 5/18/2004 3:00 NA NA 28 NA NA NA NA NA NA NA 
lportier 59 LCaillouES 14 10/26/2004 14:30 NA  NA      NA NA  
lportier 59 LCaillouES 14 10/26/2004 14:30 NA 27 NA NA 2.6 NA 7.1 NA NA NA 
lportier 59 LCaillouES 14 10/26/2004 14:30 NA 29 NA NA 2.6 NA 7.4 NA NA NA 
lportier 59 LCaillouES 14 10/26/2004 14:30 NA 28 NA NA 7.3 NA 7.3 NA NA NA 
lportier 59 LCaillouES 14 10/26/2004 14:30 NA 28 NA NA 2.6 NA 7.3 NA NA NA 
lportier 59 LCaillouES 14 10/26/2004 14:30 NA 26 NA NA 2.6 NA 7.6 NA NA NA 
lportier 59 LCaillouES 14 11/22/2004 10:47 NA 25 NA NA NA 8.2 na na NA 
lportier 59 LCaillouES 14 11/22/2004 10:45 NA 25 NA 8.2 NA 7.4 NA 7.9 na na NA 
lportier 59 LCaillouES 14 11/22/2004 11:30 NA 24 NA NA NA na na NA 
lportier 59 LCaillouES 14 11/22/2004 11:30 NA 24 NA NA 7.2 NA 7.9 na na NA 
lportier 59 LCaillouES 14 11/22/2004 14:17 NA 26 NA NA 7.2 NA 8.1 na na NA 
lportier 59 LCaillouES 14 11/22/2004 14:17 NA 24 NA NA 7.1 NA 8.1 na na NA 
lportier 59 LCaillouES 14 12/21/2004 10:55 NA 15 NA NA 7.2 NA 8.7 na na NA 
lportier 59 LCaillouES 14 12/21/2004 10:55 NA 15 NA NA 6.2 NA 8.7 na na NA 
lportier 59 LCaillouES 14 3/15/2005 14:40 NA 19 NA NA 7.1 NA 8.3 na na NA 
lportier 59 LCaillouES 14 3/15/2005 14:40 NA 19 NA NA 6.2 NA 8.2 na na NA 
lportier 59 LCaillouES 14 3/15/2005 14:00 NA 19 NA NA 6.8 NA NA na na NA 
lportier 59 LCaillouES 14 3/15/2005 14:00 NA 19 NA 2.0 NA 6.0 NA 8.4 na na NA 
lportier 59 NA LCaillouES 14 5/19/2005 10:30 NA 29 NA NA 6.2 NA 8.1 na na NA 
lportier 59 NA LCaillouES 14 5/20/2005 10:30 NA 29 NA NA 6.6 NA NA na na NA 
lportier 59 LCaillouES 14 5/20/2005 13:00 NA 32 NA NA 6.8 NA 8.8 na na NA 
lportier 59 LCaillouES 14 5/20/2005 13:00 NA 32 NA NA 6.4 NA 8.8 na na NA 
lportier 59 LCaillouES 14 5/23/2005 10:09 NA 30 NA NA 4.6 NA 8.6 na na NA 
lportier 59 LCaillouES 14 5/23/2005 10:09 NA 30 NA NA 4.6 NA 8.6 na na NA 
lportier 59 LCaillouES 14 5/23/2005 1:55 NA 31 NA NA 6.8 NA 8.9 na na NA 
lportier 59 LCaillouES 14 10/11/2005 13:55 NA 28 NA NA 2.0 NA 6.9 na na NA 
lportier 59 LCaillouES 14 10/11/2005 13:40 NA 27 NA NA 3.6 NA 6.8 na na NA 
lportier 59 LCaillouES 14 10/11/2005 13:55 NA 29 NA NA NA 6.9 na na NA 
lportier 59 LCaillouES 14 10/11/2005 13:45 NA 27 NA NA 1.4 NA 6.8 na na NA 
lportier 59 LCaillouES 14 10/11/2005 13:45 NA 26 NA NA 1.4 NA 6.9 na na NA 
lportier 59 LCaillouES 14 10/13/2005 13:15 NA 30 NA NA 3.8 NA NA na na NA 
lportier 59 LCaillouES 14 10/13/2005 13:15 NA 30 NA NA NA 7.1 na na NA 
lportier 59 LCaillouES 14 10/13/2005 13:15 NA 30 NA NA NA NA 6.9 na na NA 
lportier 59 LCaillouES 14 10/13/2005 13:15 NA 29 NA NA 3.5 NA 6.9 na na NA 
lportier 59 LCaillouES 14 10/13/2005 12:49 NA 27 NA NA 4.2 NA 6.8 na na NA 
lportier 59 NA LCaillouES 14 10/13/2005 13:15 NA 28 NA NA NA 8.0 NA 7.0 na na NA 
lportier 59 NA LCaillouES 14 10/13/2005 13:15 NA 28 NA NA NA NA na na NA 
lportier 59 NA LCaillouES 14 10/13/2005 13:15 NA 26 NA NA NA na na NA 
lportier 59 LCaillouES 14 10/13/2005 13:15 NA 28 NA NA NA NA 6.5 na na NA 
lportier 59 NA LCaillouES 14 10/13/2005 13:15 NA 28 NA NA NA NA 6.5 na na NA 
lportier 59 LCaillouES 14 1/6/2006 13:50 NA 17 NA NA 11.9 NA 9.1 na na NA 
Lumcon  LCaillouES 14 7/14/2006 08:20 NA 32 NA NA NA 7.8 NA NA 100